EDDK/CGN METAR and TAF weather

Enter ICAO airport designator
Station Type Date Time Source
EDDK METAR 2019/06/26 17:50 UTC NOAA

EDDK 261750Z 33009KT CAVOK 30/18 Q1023 NOSIG


Station Type Date Time Source
EDDK Decoded METAR 2019/06/26 17:50 UTC NOAA

Koeln / Bonn, Germany (EDDK) 50-52N 007-10E 100M
Jun 26, 2019 - 01:50 PM EDT / 2019.06.26 1750 UTC
Wind: from the NNW (330 degrees) at 10 MPH (9 KT):0
Visibility: greater than 7 mile(s):0
Temperature: 86 F (30 C)
Dew Point: 64 F (18 C)
Relative Humidity: 48%
Pressure (altimeter): 30.21 in. Hg (1023 hPa)
ob: EDDK 261750Z 33009KT CAVOK 30/18 Q1023 NOSIG
cycle: 18

Station Type Date Time Source
EDDK TAF 2019/06/26 18:27 UTC NOAA

TAF EDDK 261700Z 2618/2724 34010KT CAVOK
BECMG 2620/2623 35005KT
BECMG 2710/2712 35010KT
BECMG 2719/2721 36005KT

Example: see airport list